sensor_id;sensor_type;location;lat;lon;timestamp;temperature;humidity
4056;DHT22;2043;52.184;8.690;2023-02-18T00:01:31;7.70;98.70
4056;DHT22;2043;52.184;8.690;2023-02-18T00:03:59;7.70;98.90
4056;DHT22;2043;52.184;8.690;2023-02-18T00:06:32;7.60;99.00
4056;DHT22;2043;52.184;8.690;2023-02-18T00:09:00;7.60;99.40
4056;DHT22;2043;52.184;8.690;2023-02-18T00:11:30;7.50;99.60
4056;DHT22;2043;52.184;8.690;2023-02-18T00:13:59;7.50;99.90
4056;DHT22;2043;52.184;8.690;2023-02-18T00:16:26;7.50;99.90
4056;DHT22;2043;52.184;8.690;2023-02-18T00:18:55;7.40;99.90
4056;DHT22;2043;52.184;8.690;2023-02-18T00:21:32;7.40;99.90
4056;DHT22;2043;52.184;8.690;2023-02-18T00:23:59;7.40;99.90
4056;DHT22;2043;52.184;8.690;2023-02-18T00:26:26;7.30;99.90
4056;DHT22;2043;52.184;8.690;2023-02-18T00:28:54;7.30;99.90
4056;DHT22;2043;52.184;8.690;2023-02-18T00:31:24;7.40;99.90
4056;DHT22;2043;52.184;8.690;2023-02-18T00:33:51;7.40;99.90
4056;DHT22;2043;52.184;8.690;2023-02-18T00:36:19;7.40;99.90
4056;DHT22;2043;52.184;8.690;2023-02-18T00:38:48;7.40;99.90
4056;DHT22;2043;52.184;8.690;2023-02-18T00:41:16;7.40;99.90
4056;DHT22;2043;52.184;8.690;2023-02-18T00:43:43;7.50;99.90
4056;DHT22;2043;52.184;8.690;2023-02-18T00:46:10;7.50;99.90
4056;DHT22;2043;52.184;8.690;2023-02-18T00:48:37;7.50;99.90
4056;DHT22;2043;52.184;8.690;2023-02-18T00:51:05;7.50;99.90
4056;DHT22;2043;52.184;8.690;2023-02-18T00:53:33;7.40;99.90
4056;DHT22;2043;52.184;8.690;2023-02-18T00:56:00;7.40;99.90
4056;DHT22;2043;52.184;8.690;2023-02-18T00:58:27;7.40;99.90
4056;DHT22;2043;52.184;8.690;2023-02-18T01:00:54;7.40;99.90
4056;DHT22;2043;52.184;8.690;2023-02-18T01:03:22;7.50;99.90
4056;DHT22;2043;52.184;8.690;2023-02-18T01:05:49;7.50;99.90
4056;DHT22;2043;52.184;8.690;2023-02-18T01:08:18;7.50;99.90
4056;DHT22;2043;52.184;8.690;2023-02-18T01:10:46;7.50;99.90
4056;DHT22;2043;52.184;8.690;2023-02-18T01:13:14;7.60;99.90
4056;DHT22;2043;52.184;8.690;2023-02-18T01:15:42;7.60;99.90
4056;DHT22;2043;52.184;8.690;2023-02-18T01:18:09;7.70;99.90
4056;DHT22;2043;52.184;8.690;2023-02-18T01:20:37;7.70;99.90
4056;DHT22;2043;52.184;8.690;2023-02-18T01:23:12;7.70;99.90
4056;DHT22;2043;52.184;8.690;2023-02-18T01:25:39;7.80;99.90
4056;DHT22;2043;52.184;8.690;2023-02-18T01:28:06;7.80;99.90
4056;DHT22;2043;52.184;8.690;2023-02-18T01:30:34;7.80;99.90
4056;DHT22;2043;52.184;8.690;2023-02-18T01:33:01;7.90;99.90
4056;DHT22;2043;52.184;8.690;2023-02-18T01:35:27;7.80;99.90
4056;DHT22;2043;52.184;8.690;2023-02-18T01:37:54;7.90;99.90
4056;DHT22;2043;52.184;8.690;2023-02-18T01:40:24;7.90;99.90
4056;DHT22;2043;52.184;8.690;2023-02-18T01:42:51;7.90;99.90
4056;DHT22;2043;52.184;8.690;2023-02-18T01:45:52;8.00;99.90
4056;DHT22;2043;52.184;8.690;2023-02-18T01:51:11;8.00;99.90
4056;DHT22;2043;52.184;8.690;2023-02-18T01:53:55;8.00;99.90
4056;DHT22;2043;52.184;8.690;2023-02-18T01:56:49;8.10;99.90
4056;DHT22;2043;52.184;8.690;2023-02-18T01:59:23;8.10;99.90
4056;DHT22;2043;52.184;8.690;2023-02-18T02:01:52;8.10;99.90
4056;DHT22;2043;52.184;8.690;2023-02-18T02:04:20;8.10;99.90
4056;DHT22;2043;52.184;8.690;2023-02-18T02:06:47;8.10;99.90
4056;DHT22;2043;52.184;8.690;2023-02-18T02:09:16;8.20;99.90
4056;DHT22;2043;52.184;8.690;2023-02-18T02:12:20;8.20;99.90
4056;DHT22;2043;52.184;8.690;2023-02-18T02:15:05;8.20;99.90
4056;DHT22;2043;52.184;8.690;2023-02-18T02:23:39;8.30;99.90
4056;DHT22;2043;52.184;8.690;2023-02-18T02:26:48;8.30;99.90
4056;DHT22;2043;52.184;8.690;2023-02-18T02:38:19;8.30;99.90
4056;DHT22;2043;52.184;8.690;2023-02-18T02:41:07;8.30;99.90
4056;DHT22;2043;52.184;8.690;2023-02-18T02:46:35;8.40;99.90
4056;DHT22;2043;52.184;8.690;2023-02-18T02:51:59;8.40;99.90
4056;DHT22;2043;52.184;8.690;2023-02-18T02:54:28;8.30;99.90
4056;DHT22;2043;52.184;8.690;2023-02-18T02:59:32;8.40;99.90
4056;DHT22;2043;52.184;8.690;2023-02-18T03:05:19;8.40;99.90
4056;DHT22;2043;52.184;8.690;2023-02-18T03:23:36;8.50;99.90
4056;DHT22;2043;52.184;8.690;2023-02-18T03:26:05;8.50;99.90
4056;DHT22;2043;52.184;8.690;2023-02-18T03:28:35;8.60;99.90
4056;DHT22;2043;52.184;8.690;2023-02-18T03:31:06;8.60;99.90
4056;DHT22;2043;52.184;8.690;2023-02-18T03:33:44;8.60;99.90
4056;DHT22;2043;52.184;8.690;2023-02-18T03:36:12;8.70;99.90
4056;DHT22;2043;52.184;8.690;2023-02-18T03:38:46;8.70;99.90
4056;DHT22;2043;52.184;8.690;2023-02-18T03:41:14;8.70;99.90
4056;DHT22;2043;52.184;8.690;2023-02-18T03:43:58;8.70;99.90
4056;DHT22;2043;52.184;8.690;2023-02-18T03:46:30;8.80;99.90
4056;DHT22;2043;52.184;8.690;2023-02-18T03:48:57;8.80;99.90
4056;DHT22;2043;52.184;8.690;2023-02-18T03:51:24;8.80;99.90
4056;DHT22;2043;52.184;8.690;2023-02-18T03:53:51;8.80;99.90
4056;DHT22;2043;52.184;8.690;2023-02-18T03:56:18;8.80;99.90
4056;DHT22;2043;52.184;8.690;2023-02-18T03:58:45;8.80;99.90
4056;DHT22;2043;52.184;8.690;2023-02-18T04:01:12;8.80;99.90
4056;DHT22;2043;52.184;8.690;2023-02-18T04:03:51;8.80;99.90
4056;DHT22;2043;52.184;8.690;2023-02-18T04:06:18;8.90;99.90
4056;DHT22;2043;52.184;8.690;2023-02-18T04:08:45;8.80;99.90
4056;DHT22;2043;52.184;8.690;2023-02-18T04:11:11;8.80;99.90
4056;DHT22;2043;52.184;8.690;2023-02-18T04:13:38;8.90;99.90
4056;DHT22;2043;52.184;8.690;2023-02-18T04:16:05;8.90;99.90
4056;DHT22;2043;52.184;8.690;2023-02-18T04:18:32;8.80;99.90
4056;DHT22;2043;52.184;8.690;2023-02-18T04:20:59;8.80;99.90
4056;DHT22;2043;52.184;8.690;2023-02-18T04:23:26;8.80;99.90
4056;DHT22;2043;52.184;8.690;2023-02-18T04:25:53;8.80;99.90
4056;DHT22;2043;52.184;8.690;2023-02-18T04:28:19;8.90;99.90
4056;DHT22;2043;52.184;8.690;2023-02-18T04:30:47;8.80;99.90
4056;DHT22;2043;52.184;8.690;2023-02-18T04:33:14;8.80;99.90
4056;DHT22;2043;52.184;8.690;2023-02-18T04:35:40;8.90;99.90
4056;DHT22;2043;52.184;8.690;2023-02-18T04:38:09;8.90;99.90
4056;DHT22;2043;52.184;8.690;2023-02-18T04:40:36;8.90;99.90
4056;DHT22;2043;52.184;8.690;2023-02-18T04:43:03;8.90;99.90
4056;DHT22;2043;52.184;8.690;2023-02-18T04:45:30;8.90;99.90
4056;DHT22;2043;52.184;8.690;2023-02-18T04:47:57;9.00;99.90
4056;DHT22;2043;52.184;8.690;2023-02-18T04:50:24;9.00;99.90
4056;DHT22;2043;52.184;8.690;2023-02-18T04:52:50;9.00;99.90
4056;DHT22;2043;52.184;8.690;2023-02-18T04:55:17;8.90;99.90
4056;DHT22;2043;52.184;8.690;2023-02-18T04:57:44;8.90;99.90
4056;DHT22;2043;52.184;8.690;2023-02-18T05:00:15;9.00;99.90
4056;DHT22;2043;52.184;8.690;2023-02-18T05:02:43;8.90;99.90
4056;DHT22;2043;52.184;8.690;2023-02-18T05:05:10;8.90;99.90
4056;DHT22;2043;52.184;8.690;2023-02-18T05:07:37;9.00;99.90
4056;DHT22;2043;52.184;8.690;2023-02-18T05:10:06;9.00;99.90
4056;DHT22;2043;52.184;8.690;2023-02-18T05:12:33;9.00;99.90
4056;DHT22;2043;52.184;8.690;2023-02-18T05:14:59;9.00;99.90
4056;DHT22;2043;52.184;8.690;2023-02-18T05:17:26;9.00;99.90
4056;DHT22;2043;52.184;8.690;2023-02-18T05:19:53;9.00;99.90
4056;DHT22;2043;52.184;8.690;2023-02-18T05:22:19;9.10;99.90
4056;DHT22;2043;52.184;8.690;2023-02-18T05:27:13;9.10;99.90
4056;DHT22;2043;52.184;8.690;2023-02-18T05:29:40;9.20;99.90
4056;DHT22;2043;52.184;8.690;2023-02-18T05:32:07;9.20;99.90
4056;DHT22;2043;52.184;8.690;2023-02-18T05:34:34;9.20;99.90
4056;DHT22;2043;52.184;8.690;2023-02-18T05:37:00;9.20;99.90
4056;DHT22;2043;52.184;8.690;2023-02-18T05:39:27;9.30;99.90
4056;DHT22;2043;52.184;8.690;2023-02-18T05:41:54;9.30;99.90
4056;DHT22;2043;52.184;8.690;2023-02-18T05:44:21;9.30;99.90
4056;DHT22;2043;52.184;8.690;2023-02-18T05:46:59;9.30;99.90
4056;DHT22;2043;52.184;8.690;2023-02-18T05:49:27;9.40;99.90
4056;DHT22;2043;52.184;8.690;2023-02-18T05:51:54;9.40;99.90
4056;DHT22;2043;52.184;8.690;2023-02-18T05:54:22;9.40;99.90
4056;DHT22;2043;52.184;8.690;2023-02-18T05:56:49;9.50;99.90
4056;DHT22;2043;52.184;8.690;2023-02-18T05:59:16;9.50;99.90
4056;DHT22;2043;52.184;8.690;2023-02-18T06:01:43;9.60;99.90
4056;DHT22;2043;52.184;8.690;2023-02-18T06:04:10;9.60;99.90
4056;DHT22;2043;52.184;8.690;2023-02-18T06:06:37;9.60;99.90
4056;DHT22;2043;52.184;8.690;2023-02-18T06:09:05;9.60;99.90
4056;DHT22;2043;52.184;8.690;2023-02-18T06:11:32;9.60;99.90
4056;DHT22;2043;52.184;8.690;2023-02-18T06:13:58;9.60;99.90
4056;DHT22;2043;52.184;8.690;2023-02-18T06:16:26;9.60;99.90
4056;DHT22;2043;52.184;8.690;2023-02-18T06:18:54;9.60;99.90
4056;DHT22;2043;52.184;8.690;2023-02-18T06:21:21;9.70;99.90
4056;DHT22;2043;52.184;8.690;2023-02-18T06:26:14;9.70;99.90
4056;DHT22;2043;52.184;8.690;2023-02-18T06:28:41;9.70;99.90
4056;DHT22;2043;52.184;8.690;2023-02-18T06:31:08;9.80;99.90
4056;DHT22;2043;52.184;8.690;2023-02-18T06:33:35;9.80;99.90
4056;DHT22;2043;52.184;8.690;2023-02-18T06:36:05;9.80;99.90
4056;DHT22;2043;52.184;8.690;2023-02-18T06:38:39;9.80;99.90
4056;DHT22;2043;52.184;8.690;2023-02-18T06:41:06;9.80;99.90
4056;DHT22;2043;52.184;8.690;2023-02-18T06:43:33;9.80;99.90
4056;DHT22;2043;52.184;8.690;2023-02-18T06:46:00;9.80;99.90
4056;DHT22;2043;52.184;8.690;2023-02-18T06:48:27;9.80;99.90
4056;DHT22;2043;52.184;8.690;2023-02-18T06:50:54;9.80;99.90
4056;DHT22;2043;52.184;8.690;2023-02-18T06:53:21;9.80;99.90
4056;DHT22;2043;52.184;8.690;2023-02-18T06:55:48;9.80;99.90
4056;DHT22;2043;52.184;8.690;2023-02-18T06:58:15;9.80;99.90
4056;DHT22;2043;52.184;8.690;2023-02-18T07:00:42;9.90;99.90
4056;DHT22;2043;52.184;8.690;2023-02-18T07:03:11;9.90;99.90
4056;DHT22;2043;52.184;8.690;2023-02-18T07:05:38;9.90;99.90
4056;DHT22;2043;52.184;8.690;2023-02-18T07:08:06;10.00;99.90
4056;DHT22;2043;52.184;8.690;2023-02-18T07:10:32;10.00;99.90
4056;DHT22;2043;52.184;8.690;2023-02-18T07:12:59;10.00;99.90
4056;DHT22;2043;52.184;8.690;2023-02-18T07:15:26;10.00;99.90
4056;DHT22;2043;52.184;8.690;2023-02-18T07:17:53;10.00;99.90
4056;DHT22;2043;52.184;8.690;2023-02-18T07:20:21;10.00;99.90
4056;DHT22;2043;52.184;8.690;2023-02-18T07:22:48;10.00;99.90
4056;DHT22;2043;52.184;8.690;2023-02-18T07:25:15;10.00;99.90
4056;DHT22;2043;52.184;8.690;2023-02-18T07:30:09;10.10;99.90
4056;DHT22;2043;52.184;8.690;2023-02-18T07:32:36;10.10;99.90
4056;DHT22;2043;52.184;8.690;2023-02-18T07:35:04;10.00;99.90
4056;DHT22;2043;52.184;8.690;2023-02-18T07:37:31;10.10;99.90
4056;DHT22;2043;52.184;8.690;2023-02-18T07:39:58;10.10;99.90
4056;DHT22;2043;52.184;8.690;2023-02-18T07:42:25;10.10;99.90
4056;DHT22;2043;52.184;8.690;2023-02-18T07:44:52;10.10;99.90
4056;DHT22;2043;52.184;8.690;2023-02-18T07:47:19;10.10;99.90
4056;DHT22;2043;52.184;8.690;2023-02-18T07:49:45;10.10;99.90
4056;DHT22;2043;52.184;8.690;2023-02-18T07:52:13;10.10;99.90
4056;DHT22;2043;52.184;8.690;2023-02-18T07:54:41;10.10;99.90
4056;DHT22;2043;52.184;8.690;2023-02-18T07:57:08;10.10;99.90
4056;DHT22;2043;52.184;8.690;2023-02-18T07:59:35;10.10;99.90
4056;DHT22;2043;52.184;8.690;2023-02-18T08:02:02;10.10;99.90
4056;DHT22;2043;52.184;8.690;2023-02-18T08:04:29;10.10;99.90
4056;DHT22;2043;52.184;8.690;2023-02-18T08:06:56;10.10;99.90
4056;DHT22;2043;52.184;8.690;2023-02-18T08:09:23;10.10;99.90
4056;DHT22;2043;52.184;8.690;2023-02-18T08:11:49;10.10;99.90
4056;DHT22;2043;52.184;8.690;2023-02-18T08:14:16;10.10;99.90
4056;DHT22;2043;52.184;8.690;2023-02-18T08:16:53;10.20;99.90
4056;DHT22;2043;52.184;8.690;2023-02-18T08:21:47;10.20;99.90
4056;DHT22;2043;52.184;8.690;2023-02-18T08:24:14;10.20;99.90
4056;DHT22;2043;52.184;8.690;2023-02-18T08:26:41;10.20;99.90
4056;DHT22;2043;52.184;8.690;2023-02-18T08:29:24;10.10;99.90
4056;DHT22;2043;52.184;8.690;2023-02-18T08:31:51;10.10;99.90
4056;DHT22;2043;52.184;8.690;2023-02-18T08:34:19;10.10;99.90
4056;DHT22;2043;52.184;8.690;2023-02-18T08:36:46;10.10;99.90
4056;DHT22;2043;52.184;8.690;2023-02-18T08:39:13;10.10;99.90
4056;DHT22;2043;52.184;8.690;2023-02-18T08:41:40;10.10;99.90
4056;DHT22;2043;52.184;8.690;2023-02-18T08:44:06;10.10;99.90
4056;DHT22;2043;52.184;8.690;2023-02-18T08:46:33;10.10;99.90
4056;DHT22;2043;52.184;8.690;2023-02-18T08:49:03;10.10;99.90
4056;DHT22;2043;52.184;8.690;2023-02-18T08:51:30;10.10;99.90
4056;DHT22;2043;52.184;8.690;2023-02-18T08:53:57;10.10;99.90
4056;DHT22;2043;52.184;8.690;2023-02-18T08:56:24;10.10;99.90
4056;DHT22;2043;52.184;8.690;2023-02-18T08:58:51;10.10;99.90
4056;DHT22;2043;52.184;8.690;2023-02-18T09:01:17;10.10;99.90
4056;DHT22;2043;52.184;8.690;2023-02-18T09:03:44;10.10;99.90
4056;DHT22;2043;52.184;8.690;2023-02-18T09:06:11;10.10;99.90
4056;DHT22;2043;52.184;8.690;2023-02-18T09:08:38;10.10;99.90
4056;DHT22;2043;52.184;8.690;2023-02-18T09:11:04;10.20;99.90
4056;DHT22;2043;52.184;8.690;2023-02-18T09:13:32;10.20;99.90
4056;DHT22;2043;52.184;8.690;2023-02-18T09:16:05;10.20;99.90
4056;DHT22;2043;52.184;8.690;2023-02-18T09:18:32;10.20;99.90
4056;DHT22;2043;52.184;8.690;2023-02-18T09:21:03;10.20;99.90
4056;DHT22;2043;52.184;8.690;2023-02-18T09:23:31;10.10;99.90
4056;DHT22;2043;52.184;8.690;2023-02-18T09:25:58;10.20;99.90
4056;DHT22;2043;52.184;8.690;2023-02-18T09:28:25;10.20;99.90
4056;DHT22;2043;52.184;8.690;2023-02-18T09:30:52;10.30;99.90
4056;DHT22;2043;52.184;8.690;2023-02-18T09:33:19;10.40;99.90
4056;DHT22;2043;52.184;8.690;2023-02-18T09:35:46;10.40;99.90
4056;DHT22;2043;52.184;8.690;2023-02-18T09:38:15;10.40;99.90
4056;DHT22;2043;52.184;8.690;2023-02-18T09:40:49;10.40;99.90
4056;DHT22;2043;52.184;8.690;2023-02-18T09:43:38;10.40;99.90
4056;DHT22;2043;52.184;8.690;2023-02-18T09:46:20;10.40;99.90
4056;DHT22;2043;52.184;8.690;2023-02-18T09:48:50;10.40;99.90
4056;DHT22;2043;52.184;8.690;2023-02-18T09:51:18;10.40;99.90
4056;DHT22;2043;52.184;8.690;2023-02-18T09:53:45;10.40;99.90
4056;DHT22;2043;52.184;8.690;2023-02-18T09:56:20;10.30;99.90
4056;DHT22;2043;52.184;8.690;2023-02-18T09:58:48;10.40;99.90
4056;DHT22;2043;52.184;8.690;2023-02-18T10:04:03;10.30;99.90
4056;DHT22;2043;52.184;8.690;2023-02-18T10:06:32;10.30;99.90
4056;DHT22;2043;52.184;8.690;2023-02-18T10:09:03;10.30;99.90
4056;DHT22;2043;52.184;8.690;2023-02-18T10:11:37;10.20;99.90
4056;DHT22;2043;52.184;8.690;2023-02-18T10:14:10;10.20;99.90
4056;DHT22;2043;52.184;8.690;2023-02-18T10:16:38;10.20;99.90
4056;DHT22;2043;52.184;8.690;2023-02-18T10:19:27;10.20;99.90
4056;DHT22;2043;52.184;8.690;2023-02-18T10:21:55;10.20;99.90
4056;DHT22;2043;52.184;8.690;2023-02-18T10:24:41;10.20;99.90
4056;DHT22;2043;52.184;8.690;2023-02-18T10:27:16;10.30;99.90
4056;DHT22;2043;52.184;8.690;2023-02-18T10:29:44;10.30;99.90
4056;DHT22;2043;52.184;8.690;2023-02-18T10:32:30;10.20;99.90
4056;DHT22;2043;52.184;8.690;2023-02-18T10:34:59;10.20;99.90
4056;DHT22;2043;52.184;8.690;2023-02-18T10:50:48;10.00;99.90
4056;DHT22;2043;52.184;8.690;2023-02-18T10:53:35;10.00;99.90
4056;DHT22;2043;52.184;8.690;2023-02-18T10:56:03;10.00;99.90
4056;DHT22;2043;52.184;8.690;2023-02-18T10:58:46;10.00;99.90
4056;DHT22;2043;52.184;8.690;2023-02-18T11:01:16;10.00;99.90
4056;DHT22;2043;52.184;8.690;2023-02-18T11:09:06;9.90;99.90
4056;DHT22;2043;52.184;8.690;2023-02-18T11:11:36;9.90;99.90
4056;DHT22;2043;52.184;8.690;2023-02-18T11:14:05;9.80;99.90
4056;DHT22;2043;52.184;8.690;2023-02-18T11:16:42;9.80;99.90
4056;DHT22;2043;52.184;8.690;2023-02-18T11:19:35;9.80;99.90
4056;DHT22;2043;52.184;8.690;2023-02-18T11:22:22;9.80;99.90
4056;DHT22;2043;52.184;8.690;2023-02-18T11:25:00;9.80;99.90
4056;DHT22;2043;52.184;8.690;2023-02-18T11:27:43;9.80;99.90
4056;DHT22;2043;52.184;8.690;2023-02-18T11:30:39;9.70;99.90
4056;DHT22;2043;52.184;8.690;2023-02-18T11:33:21;9.70;99.90
4056;DHT22;2043;52.184;8.690;2023-02-18T11:35:52;9.70;99.90
4056;DHT22;2043;52.184;8.690;2023-02-18T11:38:33;9.70;99.90
4056;DHT22;2043;52.184;8.690;2023-02-18T11:41:06;9.70;99.90
4056;DHT22;2043;52.184;8.690;2023-02-18T11:43:34;9.70;99.90
4056;DHT22;2043;52.184;8.690;2023-02-18T11:48:38;9.70;99.90
4056;DHT22;2043;52.184;8.690;2023-02-18T11:51:12;9.70;99.90
4056;DHT22;2043;52.184;8.690;2023-02-18T11:53:53;9.80;99.90
4056;DHT22;2043;52.184;8.690;2023-02-18T11:56:20;9.70;99.90
4056;DHT22;2043;52.184;8.690;2023-02-18T11:58:47;9.70;99.90
4056;DHT22;2043;52.184;8.690;2023-02-18T12:01:40;9.70;99.90
4056;DHT22;2043;52.184;8.690;2023-02-18T12:06:51;9.70;99.90
4056;DHT22;2043;52.184;8.690;2023-02-18T12:09:41;9.70;99.90
4056;DHT22;2043;52.184;8.690;2023-02-18T12:12:25;9.70;99.90
4056;DHT22;2043;52.184;8.690;2023-02-18T12:14:54;9.60;99.90
4056;DHT22;2043;52.184;8.690;2023-02-18T12:22:53;9.60;99.90
4056;DHT22;2043;52.184;8.690;2023-02-18T12:31:13;9.60;99.90
4056;DHT22;2043;52.184;8.690;2023-02-18T12:36:18;9.60;99.90
4056;DHT22;2043;52.184;8.690;2023-02-18T12:47:27;9.70;99.90
4056;DHT22;2043;52.184;8.690;2023-02-18T13:01:55;9.70;99.90
4056;DHT22;2043;52.184;8.690;2023-02-18T13:13:23;9.70;99.90
4056;DHT22;2043;52.184;8.690;2023-02-18T13:16:08;9.70;99.90
4056;DHT22;2043;52.184;8.690;2023-02-18T13:21:28;9.80;99.90
4056;DHT22;2043;52.184;8.690;2023-02-18T13:24:05;9.80;99.90
4056;DHT22;2043;52.184;8.690;2023-02-18T13:26:33;9.80;99.90
4056;DHT22;2043;52.184;8.690;2023-02-18T13:39:57;9.70;99.90
4056;DHT22;2043;52.184;8.690;2023-02-18T13:42:29;9.70;99.90
4056;DHT22;2043;52.184;8.690;2023-02-18T13:47:44;9.80;99.90
4056;DHT22;2043;52.184;8.690;2023-02-18T13:58:12;9.90;99.90
4056;DHT22;2043;52.184;8.690;2023-02-18T14:00:48;9.90;99.90
4056;DHT22;2043;52.184;8.690;2023-02-18T14:05:56;9.90;99.90
4056;DHT22;2043;52.184;8.690;2023-02-18T14:08:35;9.90;99.90
4056;DHT22;2043;52.184;8.690;2023-02-18T14:11:47;9.90;99.90
4056;DHT22;2043;52.184;8.690;2023-02-18T14:17:34;9.90;99.90
4056;DHT22;2043;52.184;8.690;2023-02-18T14:27:35;9.90;99.90
4056;DHT22;2043;52.184;8.690;2023-02-18T14:30:15;9.90;99.90
4056;DHT22;2043;52.184;8.690;2023-02-18T14:32:44;10.00;99.90
4056;DHT22;2043;52.184;8.690;2023-02-18T14:37:52;10.00;99.90
4056;DHT22;2043;52.184;8.690;2023-02-18T14:48:13;10.00;99.90
4056;DHT22;2043;52.184;8.690;2023-02-18T14:50:45;10.00;99.90
4056;DHT22;2043;52.184;8.690;2023-02-18T14:53:22;10.00;99.90
4056;DHT22;2043;52.184;8.690;2023-02-18T14:56:03;10.00;99.90
4056;DHT22;2043;52.184;8.690;2023-02-18T14:58:37;10.00;99.90
4056;DHT22;2043;52.184;8.690;2023-02-18T15:01:28;10.00;99.90
4056;DHT22;2043;52.184;8.690;2023-02-18T15:03:54;10.10;99.90
4056;DHT22;2043;52.184;8.690;2023-02-18T15:06:38;10.00;99.90
4056;DHT22;2043;52.184;8.690;2023-02-18T15:09:20;10.10;99.90
4056;DHT22;2043;52.184;8.690;2023-02-18T15:14:29;10.00;99.90
4056;DHT22;2043;52.184;8.690;2023-02-18T15:16:57;10.00;99.90
4056;DHT22;2043;52.184;8.690;2023-02-18T15:19:26;10.10;99.90
4056;DHT22;2043;52.184;8.690;2023-02-18T15:21:55;10.10;99.90
4056;DHT22;2043;52.184;8.690;2023-02-18T15:24:36;10.10;99.90
4056;DHT22;2043;52.184;8.690;2023-02-18T15:27:11;10.10;99.90
4056;DHT22;2043;52.184;8.690;2023-02-18T15:29:39;10.10;99.90
4056;DHT22;2043;52.184;8.690;2023-02-18T15:32:21;10.10;99.90
4056;DHT22;2043;52.184;8.690;2023-02-18T15:34:57;10.10;99.90
4056;DHT22;2043;52.184;8.690;2023-02-18T15:37:24;10.10;99.90
4056;DHT22;2043;52.184;8.690;2023-02-18T15:45:08;10.10;99.90
4056;DHT22;2043;52.184;8.690;2023-02-18T15:47:48;10.00;99.90
4056;DHT22;2043;52.184;8.690;2023-02-18T15:50:18;10.00;99.90
4056;DHT22;2043;52.184;8.690;2023-02-18T15:52:46;10.10;99.90
4056;DHT22;2043;52.184;8.690;2023-02-18T15:55:38;10.10;99.90
4056;DHT22;2043;52.184;8.690;2023-02-18T15:58:13;10.10;99.90
4056;DHT22;2043;52.184;8.690;2023-02-18T16:00:57;10.10;99.90
4056;DHT22;2043;52.184;8.690;2023-02-18T16:03:53;10.10;99.90
4056;DHT22;2043;52.184;8.690;2023-02-18T16:06:26;10.10;99.90
4056;DHT22;2043;52.184;8.690;2023-02-18T16:11:33;10.10;99.90
4056;DHT22;2043;52.184;8.690;2023-02-18T16:14:01;10.10;99.90
4056;DHT22;2043;52.184;8.690;2023-02-18T16:16:30;10.10;99.90
4056;DHT22;2043;52.184;8.690;2023-02-18T16:18:59;10.00;99.90
4056;DHT22;2043;52.184;8.690;2023-02-18T16:21:43;10.00;99.90
4056;DHT22;2043;52.184;8.690;2023-02-18T16:26:50;10.10;99.90
4056;DHT22;2043;52.184;8.690;2023-02-18T16:29:22;10.00;99.90
4056;DHT22;2043;52.184;8.690;2023-02-18T16:31:49;10.00;99.90
4056;DHT22;2043;52.184;8.690;2023-02-18T16:34:16;10.00;99.90
4056;DHT22;2043;52.184;8.690;2023-02-18T16:36:44;10.00;99.90
4056;DHT22;2043;52.184;8.690;2023-02-18T16:39:33;10.10;99.90
4056;DHT22;2043;52.184;8.690;2023-02-18T16:42:00;10.00;99.90
4056;DHT22;2043;52.184;8.690;2023-02-18T16:44:27;10.00;99.90
4056;DHT22;2043;52.184;8.690;2023-02-18T16:46:55;10.10;99.90
4056;DHT22;2043;52.184;8.690;2023-02-18T16:49:22;10.10;99.90
4056;DHT22;2043;52.184;8.690;2023-02-18T16:51:49;10.10;99.90
4056;DHT22;2043;52.184;8.690;2023-02-18T16:56:43;10.10;99.90
4056;DHT22;2043;52.184;8.690;2023-02-18T16:59:10;10.10;99.90
4056;DHT22;2043;52.184;8.690;2023-02-18T17:01:42;10.10;99.90
4056;DHT22;2043;52.184;8.690;2023-02-18T17:04:15;10.10;99.90
4056;DHT22;2043;52.184;8.690;2023-02-18T17:06:43;10.10;99.90
4056;DHT22;2043;52.184;8.690;2023-02-18T17:09:19;10.10;99.90
4056;DHT22;2043;52.184;8.690;2023-02-18T17:11:49;10.10;99.90
4056;DHT22;2043;52.184;8.690;2023-02-18T17:14:18;10.10;99.90
4056;DHT22;2043;52.184;8.690;2023-02-18T17:16:47;10.10;99.90
4056;DHT22;2043;52.184;8.690;2023-02-18T17:19:14;10.00;99.90
4056;DHT22;2043;52.184;8.690;2023-02-18T17:21:44;10.00;99.90
4056;DHT22;2043;52.184;8.690;2023-02-18T17:24:16;10.00;99.90
4056;DHT22;2043;52.184;8.690;2023-02-18T17:26:43;10.00;99.90
4056;DHT22;2043;52.184;8.690;2023-02-18T17:29:10;9.90;99.90
4056;DHT22;2043;52.184;8.690;2023-02-18T17:31:40;9.90;99.90
4056;DHT22;2043;52.184;8.690;2023-02-18T17:34:14;9.90;99.90
4056;DHT22;2043;52.184;8.690;2023-02-18T17:36:42;9.90;99.90
4056;DHT22;2043;52.184;8.690;2023-02-18T17:39:16;9.90;99.90
4056;DHT22;2043;52.184;8.690;2023-02-18T17:41:43;9.90;99.90
4056;DHT22;2043;52.184;8.690;2023-02-18T17:44:21;9.90;99.90
4056;DHT22;2043;52.184;8.690;2023-02-18T17:46:49;9.90;99.90
4056;DHT22;2043;52.184;8.690;2023-02-18T17:49:16;9.90;99.90
4056;DHT22;2043;52.184;8.690;2023-02-18T17:51:43;9.90;99.90
4056;DHT22;2043;52.184;8.690;2023-02-18T17:54:14;9.90;99.90
4056;DHT22;2043;52.184;8.690;2023-02-18T17:56:42;9.90;99.90
4056;DHT22;2043;52.184;8.690;2023-02-18T17:59:09;9.80;99.90
4056;DHT22;2043;52.184;8.690;2023-02-18T18:01:37;9.80;99.90
4056;DHT22;2043;52.184;8.690;2023-02-18T18:04:10;9.80;99.90
4056;DHT22;2043;52.184;8.690;2023-02-18T18:06:37;9.80;99.90
4056;DHT22;2043;52.184;8.690;2023-02-18T18:09:03;9.80;99.90
4056;DHT22;2043;52.184;8.690;2023-02-18T18:11:30;9.80;99.90
4056;DHT22;2043;52.184;8.690;2023-02-18T18:13:58;9.70;99.90
4056;DHT22;2043;52.184;8.690;2023-02-18T18:16:25;9.80;99.90
4056;DHT22;2043;52.184;8.690;2023-02-18T18:18:52;9.70;99.90
4056;DHT22;2043;52.184;8.690;2023-02-18T18:23:54;9.70;99.90
4056;DHT22;2043;52.184;8.690;2023-02-18T18:26:21;9.70;99.90
4056;DHT22;2043;52.184;8.690;2023-02-18T18:28:48;9.70;99.90
4056;DHT22;2043;52.184;8.690;2023-02-18T18:31:16;9.70;99.90
4056;DHT22;2043;52.184;8.690;2023-02-18T18:33:45;9.70;99.90
4056;DHT22;2043;52.184;8.690;2023-02-18T18:36:15;9.70;99.90
4056;DHT22;2043;52.184;8.690;2023-02-18T18:38:42;9.70;99.90
4056;DHT22;2043;52.184;8.690;2023-02-18T18:41:17;9.70;99.90
4056;DHT22;2043;52.184;8.690;2023-02-18T18:43:44;9.70;99.90
4056;DHT22;2043;52.184;8.690;2023-02-18T18:46:11;9.60;99.90
4056;DHT22;2043;52.184;8.690;2023-02-18T18:48:38;9.50;99.90
4056;DHT22;2043;52.184;8.690;2023-02-18T18:51:05;9.50;99.90
4056;DHT22;2043;52.184;8.690;2023-02-18T18:53:34;9.40;99.90
4056;DHT22;2043;52.184;8.690;2023-02-18T18:56:03;9.40;99.90
4056;DHT22;2043;52.184;8.690;2023-02-18T18:58:31;9.40;99.90
4056;DHT22;2043;52.184;8.690;2023-02-18T19:01:01;9.40;99.90
4056;DHT22;2043;52.184;8.690;2023-02-18T19:03:29;9.40;99.90
4056;DHT22;2043;52.184;8.690;2023-02-18T19:05:56;9.40;99.90
4056;DHT22;2043;52.184;8.690;2023-02-18T19:08:23;9.40;99.90
4056;DHT22;2043;52.184;8.690;2023-02-18T19:10:55;9.40;99.90
4056;DHT22;2043;52.184;8.690;2023-02-18T19:13:26;9.30;99.90
4056;DHT22;2043;52.184;8.690;2023-02-18T19:16:28;9.30;99.90
4056;DHT22;2043;52.184;8.690;2023-02-18T19:18:52;9.30;99.90
4056;DHT22;2043;52.184;8.690;2023-02-18T19:21:19;9.30;99.90
4056;DHT22;2043;52.184;8.690;2023-02-18T19:23:46;9.30;99.90
4056;DHT22;2043;52.184;8.690;2023-02-18T19:26:14;9.20;99.90
4056;DHT22;2043;52.184;8.690;2023-02-18T19:28:43;9.20;99.90
4056;DHT22;2043;52.184;8.690;2023-02-18T19:31:09;9.30;99.90
4056;DHT22;2043;52.184;8.690;2023-02-18T19:33:38;9.30;99.90
4056;DHT22;2043;52.184;8.690;2023-02-18T19:36:06;9.30;99.90
4056;DHT22;2043;52.184;8.690;2023-02-18T19:38:34;9.30;99.90
4056;DHT22;2043;52.184;8.690;2023-02-18T19:41:09;9.30;99.90
4056;DHT22;2043;52.184;8.690;2023-02-18T19:43:38;9.30;99.90
4056;DHT22;2043;52.184;8.690;2023-02-18T19:46:13;9.30;99.90